createdAt,value
2022-10-01T00:01:06.820Z,18.83
2022-10-01T00:06:50.398Z,18.8
2022-10-01T00:12:33.747Z,18.81
2022-10-01T00:18:17.121Z,18.78
2022-10-01T00:24:01.948Z,18.71
2022-10-01T00:29:45.164Z,18.71
2022-10-01T00:35:28.349Z,18.71
2022-10-01T00:41:11.664Z,18.68
2022-10-01T00:46:55.764Z,18.66
2022-10-01T00:52:40.542Z,18.63
2022-10-01T00:58:24.534Z,18.67
2022-10-01T01:04:07.669Z,18.64
2022-10-01T01:09:52.275Z,18.61
2022-10-01T01:15:38.357Z,18.58
2022-10-01T01:21:26.955Z,18.55
2022-10-01T01:27:20.226Z,18.51
2022-10-01T01:33:05.750Z,18.47
2022-10-01T01:38:51.339Z,18.46
2022-10-01T01:44:36.095Z,18.43
2022-10-01T01:50:19.674Z,18.4
2022-10-01T01:56:04.609Z,18.38
2022-10-01T02:01:48.167Z,18.36
2022-10-01T02:07:40.963Z,18.36
2022-10-01T02:13:31.787Z,18.36
2022-10-01T02:19:20.459Z,18.35
2022-10-01T02:25:05.017Z,18.34
2022-10-01T02:30:49.246Z,18.32
2022-10-01T02:36:33.903Z,18.34
2022-10-01T02:42:19.089Z,18.31
2022-10-01T02:48:04.164Z,18.28
2022-10-01T02:53:51.819Z,18.27
2022-10-01T02:59:35.205Z,18.26
2022-10-01T03:05:19.222Z,18.28
2022-10-01T03:11:02.512Z,18.26
2022-10-01T03:16:45.697Z,18.25
2022-10-01T03:22:28.958Z,18.23
2022-10-01T03:28:12.220Z,18.22
2022-10-01T03:33:55.631Z,18.25
2022-10-01T03:39:38.899Z,18.24
2022-10-01T03:45:22.146Z,18.22
2022-10-01T03:51:05.855Z,18.21
2022-10-01T03:56:49.250Z,18.2
2022-10-01T04:02:32.358Z,18.22
2022-10-01T04:08:17.245Z,18.23
2022-10-01T04:14:06.190Z,18.23
2022-10-01T04:19:49.497Z,18.22
2022-10-01T04:25:32.852Z,18.22
2022-10-01T04:31:16.102Z,18.21
2022-10-01T04:36:59.723Z,18.23
2022-10-01T04:42:43.263Z,18.22
2022-10-01T04:48:26.622Z,18.21
2022-10-01T04:54:09.827Z,18.21
2022-10-01T04:59:52.963Z,18.22
2022-10-01T05:05:36.142Z,18.24
2022-10-01T05:11:19.483Z,18.23
2022-10-01T05:17:02.747Z,18.26
2022-10-01T05:22:46.443Z,18.27
2022-10-01T05:28:29.752Z,18.27
2022-10-01T05:34:13.742Z,18.3
2022-10-01T05:39:57.059Z,18.28
2022-10-01T05:45:40.588Z,18.3
2022-10-01T05:51:24.198Z,18.33
2022-10-01T05:57:07.502Z,18.34
2022-10-01T06:02:53.565Z,18.35
2022-10-01T06:08:37.743Z,18.39
2022-10-01T06:14:20.904Z,18.39
2022-10-01T06:20:04.970Z,18.4
2022-10-01T06:25:48.131Z,18.43
2022-10-01T06:31:31.498Z,18.45
2022-10-01T06:37:16.027Z,18.48
2022-10-01T06:42:59.359Z,18.47
2022-10-01T06:48:42.793Z,18.54
2022-10-01T06:54:25.947Z,18.64
2022-10-01T07:00:10.036Z,18.7
2022-10-01T07:05:53.395Z,18.76
2022-10-01T07:11:36.747Z,18.85
2022-10-01T07:17:20.199Z,18.93
2022-10-01T07:23:03.607Z,19.06
2022-10-01T07:28:46.709Z,19.14
2022-10-01T07:34:29.916Z,19.24
2022-10-01T07:40:14.411Z,19.31
2022-10-01T07:45:57.528Z,19.32
2022-10-01T07:51:41.010Z,19.4
2022-10-01T07:57:24.270Z,19.63
2022-10-01T08:03:08.888Z,19.8
2022-10-01T08:08:52.223Z,20.06
2022-10-01T08:14:38.091Z,20.15
2022-10-01T08:20:23.426Z,20.16
2022-10-01T08:26:07.879Z,20.18
2022-10-01T08:31:53.421Z,20.42
2022-10-01T08:37:36.891Z,20.53
2022-10-01T08:43:31.104Z,20.78
2022-10-01T08:49:17.267Z,21.02
2022-10-01T08:55:02.060Z,21.25
2022-10-01T09:00:47.233Z,21.46
2022-10-01T09:06:30.654Z,21.44
2022-10-01T09:12:18.954Z,21.59
2022-10-01T09:18:07.274Z,21.83
2022-10-01T09:23:57.586Z,22.03
2022-10-01T09:29:44.106Z,22.04
2022-10-01T09:35:31.149Z,21.88
2022-10-01T09:41:14.594Z,22.08
2022-10-01T09:46:57.955Z,22.31
2022-10-01T09:52:41.720Z,22.59
2022-10-01T09:58:27.373Z,22.77
2022-10-01T10:04:20.010Z,23.21
2022-10-01T10:10:16.284Z,23.39
2022-10-01T10:16:16.320Z,23.76
2022-10-01T10:22:06.570Z,23.88
2022-10-01T10:27:56.174Z,23.98
2022-10-01T10:33:44.664Z,24.01
2022-10-01T10:39:29.240Z,24.02
2022-10-01T10:45:15.756Z,24.11
2022-10-01T10:51:03.657Z,24.24
2022-10-01T10:56:51.004Z,24.35
2022-10-01T11:02:35.362Z,24.49
2022-10-01T11:08:23.519Z,24.63
2022-10-01T11:14:14.548Z,25
2022-10-01T11:20:20.567Z,24.7
2022-10-01T11:26:10.696Z,24.56
2022-10-01T11:31:58.599Z,24.68
2022-10-01T11:37:47.902Z,24.73
2022-10-01T11:43:32.002Z,24.87
2022-10-01T11:49:27.172Z,25.04
2022-10-01T11:55:15.252Z,25.27
2022-10-01T12:01:03.191Z,25.63
2022-10-01T12:06:51.570Z,25.93
2022-10-01T12:12:38.779Z,26.17
2022-10-01T12:18:25.120Z,26
2022-10-01T12:24:12.700Z,25.59
2022-10-01T12:29:59.437Z,25.32
2022-10-01T12:35:51.934Z,25.29
2022-10-01T12:41:41.350Z,25.11
2022-10-01T12:47:34.707Z,25.31
2022-10-01T12:53:24.615Z,25.13
2022-10-01T12:59:19.503Z,24.86
2022-10-01T13:05:09.122Z,25.09
2022-10-01T13:10:59.039Z,24.82
2022-10-01T13:16:46.461Z,24.81
2022-10-01T13:22:34.884Z,24.68
2022-10-01T13:28:23.175Z,24.9
2022-10-01T13:34:17.542Z,24.94
2022-10-01T13:40:01.095Z,24.81
2022-10-01T13:45:45.382Z,24.83
2022-10-01T13:51:37.740Z,24.83
2022-10-01T13:57:28.163Z,25.1
2022-10-01T14:03:24.971Z,25.33
2022-10-01T14:09:13.440Z,25.57
2022-10-01T14:14:57.503Z,25.85
2022-10-01T14:20:46.381Z,26.14
2022-10-01T14:26:34.793Z,26.13
2022-10-01T14:32:24.842Z,26.47
2022-10-01T14:38:18.146Z,26.4
2022-10-01T14:44:01.351Z,26.14
2022-10-01T14:49:45.140Z,26.16
2022-10-01T14:55:29.029Z,26.45
2022-10-01T15:01:17.423Z,26.28
2022-10-01T15:07:09.840Z,26.1
2022-10-01T15:12:54.040Z,25.89
2022-10-01T15:18:37.120Z,25.66
2022-10-01T15:24:24.643Z,25.49
2022-10-01T15:30:13.487Z,25.28
2022-10-01T15:35:57.203Z,25.13
2022-10-01T15:41:40.699Z,24.93
2022-10-01T15:47:31.596Z,24.73
2022-10-01T15:53:18.575Z,24.54
2022-10-01T15:59:03.875Z,24.38
2022-10-01T16:04:47.219Z,24.17
2022-10-01T16:10:33.063Z,23.96
2022-10-01T16:16:33.207Z,23.84
2022-10-01T16:22:20.379Z,23.79
2022-10-01T16:28:09.896Z,23.61
2022-10-01T16:33:53.251Z,23.52
2022-10-01T16:39:36.549Z,23.44
2022-10-01T16:45:22.375Z,23.35
2022-10-01T16:51:05.880Z,23.23
2022-10-01T16:56:49.007Z,23.1
2022-10-01T17:02:32.264Z,23.01
2022-10-01T17:08:15.483Z,22.89
2022-10-01T17:13:58.847Z,22.77
2022-10-01T17:19:43.082Z,22.67
2022-10-01T17:25:27.894Z,22.58
2022-10-01T17:31:14.376Z,22.49
2022-10-01T17:37:00.695Z,22.46
2022-10-01T17:42:44.114Z,22.37
2022-10-01T17:48:29.635Z,22.3
2022-10-01T17:54:12.968Z,22.25
2022-10-01T17:59:56.326Z,22.16
2022-10-01T18:05:39.586Z,22.09
2022-10-01T18:11:23.130Z,21.99
2022-10-01T18:17:06.422Z,21.88
2022-10-01T18:22:50.158Z,21.8
2022-10-01T18:28:33.382Z,21.74
2022-10-01T18:34:22.257Z,21.71
2022-10-01T18:40:10.371Z,21.63
2022-10-01T18:45:59.335Z,21.54
2022-10-01T18:51:56.058Z,21.48
2022-10-01T18:57:47.114Z,21.44
2022-10-01T19:03:38.328Z,21.38
2022-10-01T19:09:27.417Z,21.3
2022-10-01T19:15:16.482Z,21.23
2022-10-01T19:21:07.919Z,21.16
2022-10-01T19:26:54.602Z,21.11
2022-10-01T19:32:42.091Z,21.06
2022-10-01T19:38:27.589Z,21.01
2022-10-01T19:44:15.298Z,20.95
2022-10-01T19:50:01.658Z,20.88
2022-10-01T19:55:45.143Z,20.82
2022-10-01T20:01:32.486Z,20.79
2022-10-01T20:07:20.920Z,20.77
2022-10-01T20:13:09.414Z,20.72
2022-10-01T20:18:57.487Z,20.69
2022-10-01T20:24:46.614Z,20.63
2022-10-01T20:30:33.626Z,20.61
2022-10-01T20:36:22.291Z,20.59
2022-10-01T20:42:05.855Z,20.56
2022-10-01T20:47:51.310Z,20.52
2022-10-01T20:53:36.750Z,20.47
2022-10-01T20:59:23.591Z,20.42
2022-10-01T21:05:11.231Z,20.42
2022-10-01T21:10:56.958Z,20.39
2022-10-01T21:16:46.294Z,20.34
2022-10-01T21:22:34.799Z,20.32
2022-10-01T21:28:24.451Z,20.28
2022-10-01T21:34:12.299Z,20.26
2022-10-01T21:40:00.535Z,20.22
2022-10-01T21:45:47.537Z,20.2
2022-10-01T21:51:38.087Z,20.18
2022-10-01T21:57:27.746Z,20.12
2022-10-01T22:03:17.081Z,20.1
2022-10-01T22:09:07.481Z,20.1
2022-10-01T22:14:51.984Z,20.08
2022-10-01T22:20:39.079Z,20.04
2022-10-01T22:26:24.967Z,20.01
2022-10-01T22:32:11.118Z,19.97
2022-10-01T22:37:56.922Z,19.93
2022-10-01T22:43:40.310Z,19.94
2022-10-01T22:49:30.084Z,19.92
2022-10-01T22:55:22.047Z,19.93
2022-10-01T23:01:10.962Z,19.92
2022-10-01T23:06:57.693Z,19.92
2022-10-01T23:12:46.298Z,19.9
2022-10-01T23:18:35.818Z,19.88
2022-10-01T23:24:27.394Z,19.88
2022-10-01T23:30:12.070Z,19.88
2022-10-01T23:36:01.024Z,19.87
2022-10-01T23:41:47.717Z,19.86
2022-10-01T23:47:35.263Z,19.83
2022-10-01T23:53:20.681Z,19.83
2022-10-01T23:59:09.267Z,19.81
